Time;durP1;ratioP1;P1;durP2;ratioP2;P2;SDS_P1;SDS_P2;PMS_P1;PMS_P2;Temp;Humidity;BMP_temperature;BMP_pressure;BME280_temperature;BME280_humidity;BME280_pressure;Samples;Min_cycle;Max_cycle;Signal;HPM_P1;HPM_P2
2022/08/25 00:01:24;;;;;;;1.90;1.80;;;24.70;54.80;;;;;;5035850;28;20225;-77
2022/08/25 00:03:51;;;;;;;2.00;1.90;;;24.70;54.90;;;;;;5020123;28;20206;-77
2022/08/25 00:06:18;;;;;;;2.20;2.10;;;24.70;54.80;;;;;;5036211;28;20198;-77
2022/08/25 00:08:46;;;;;;;2.00;1.90;;;24.70;54.80;;;;;;5019819;28;20200;-77
2022/08/25 00:11:14;;;;;;;2.17;2.03;;;24.70;54.90;;;;;;5053271;28;20226;-77
2022/08/25 00:13:42;;;;;;;2.30;2.10;;;24.70;54.90;;;;;;5052597;28;20199;-77
2022/08/25 00:16:11;;;;;;;2.08;1.98;;;24.70;54.90;;;;;;5053221;28;20203;-77
2022/08/25 00:18:38;;;;;;;1.83;1.73;;;24.70;54.90;;;;;;5052888;28;20255;-77
2022/08/25 00:21:06;;;;;;;2.10;2.00;;;24.70;55.00;;;;;;5019285;28;20678;-77
2022/08/25 00:23:33;;;;;;;2.00;1.90;;;24.60;54.90;;;;;;5035997;28;20604;-77
2022/08/25 00:26:00;;;;;;;2.20;2.10;;;24.60;54.90;;;;;;5052453;28;20210;-77
2022/08/25 00:28:28;;;;;;;1.95;1.85;;;24.60;54.90;;;;;;5020253;28;20200;-77
2022/08/25 00:30:55;;;;;;;1.90;1.80;;;24.60;55.00;;;;;;5052557;28;20230;-77
2022/08/25 00:33:23;;;;;;;1.92;1.83;;;24.60;55.50;;;;;;5036093;28;20199;-77
2022/08/25 00:35:50;;;;;;;2.20;2.00;;;24.60;55.00;;;;;;5053145;28;20595;-77
2022/08/25 00:38:17;;;;;;;2.20;2.10;;;24.60;55.60;;;;;;5052329;28;20249;-77
2022/08/25 00:40:44;;;;;;;2.30;2.10;;;24.50;55.00;;;;;;5052363;28;20220;-77
2022/08/25 00:43:12;;;;;;;2.05;1.95;;;24.60;55.10;;;;;;5052560;28;20245;-77
2022/08/25 00:45:39;;;;;;;1.98;1.88;;;24.50;55.00;;;;;;5035449;28;20203;-77
2022/08/25 00:48:06;;;;;;;2.10;2.00;;;24.50;55.00;;;;;;5052040;28;20294;-77
2022/08/25 00:50:35;;;;;;;2.13;2.03;;;24.50;55.00;;;;;;5035481;28;20215;-77
2022/08/25 00:53:03;;;;;;;2.13;2.03;;;24.50;55.00;;;;;;5035396;28;20594;-77
2022/08/25 00:55:33;;;;;;;2.00;1.90;;;24.50;55.00;;;;;;5051948;28;20657;-77
2022/08/25 00:58:02;;;;;;;2.00;1.90;;;24.50;55.00;;;;;;5037628;28;20215;-77
2022/08/25 01:00:31;;;;;;;2.20;2.00;;;24.50;55.00;;;;;;5055576;28;20768;-77
2022/08/25 01:02:58;;;;;;;2.28;2.10;;;24.50;55.10;;;;;;5055648;28;20249;-77
2022/08/25 01:05:25;;;;;;;1.85;1.75;;;24.50;55.10;;;;;;5056739;28;20192;-77
2022/08/25 01:07:53;;;;;;;1.90;1.80;;;24.50;55.10;;;;;;5055506;28;20191;-77
2022/08/25 01:10:20;;;;;;;2.00;1.90;;;24.40;55.00;;;;;;5056528;28;20215;-77
2022/08/25 01:12:47;;;;;;;2.50;2.30;;;24.50;55.10;;;;;;5055275;28;20200;-77
2022/08/25 01:15:15;;;;;;;2.03;1.92;;;24.50;55.10;;;;;;5055469;28;20204;-77
2022/08/25 01:17:46;;;;;;;2.00;1.90;;;24.40;55.10;;;;;;5056411;28;20237;-77
2022/08/25 01:20:13;;;;;;;1.92;1.83;;;24.40;55.20;;;;;;5055411;28;20227;-77
2022/08/25 01:22:42;;;;;;;2.15;2.05;;;24.40;55.10;;;;;;5038679;28;20297;-77
2022/08/25 01:25:32;;;;;;;2.10;2.00;;;24.40;55.20;;;;;;5055631;28;20200;-77
2022/08/25 01:27:59;;;;;;;2.13;2.03;;;24.40;55.20;;;;;;5055172;28;20242;-77
2022/08/25 01:30:26;;;;;;;2.17;2.08;;;24.40;55.20;;;;;;5038535;28;20657;-77
2022/08/25 01:32:53;;;;;;;1.95;1.85;;;24.40;55.20;;;;;;5022241;28;20206;-77
2022/08/25 01:35:20;;;;;;;2.10;2.00;;;24.40;55.10;;;;;;5038326;28;20183;-77
2022/08/25 01:37:49;;;;;;;2.08;1.95;;;24.30;55.10;;;;;;5055276;28;20249;-77
2022/08/25 01:40:16;;;;;;;2.03;1.92;;;24.30;55.20;;;;;;5054774;28;20232;-77
2022/08/25 01:42:52;;;;;;;3.22;2.05;;;24.30;55.10;;;;;;5038271;28;20286;-77
2022/08/25 01:45:19;;;;;;;1.95;1.85;;;24.30;55.20;;;;;;5055255;28;20321;-77
2022/08/25 01:47:46;;;;;;;1.95;1.85;;;24.30;55.20;;;;;;5038209;28;20199;-77
2022/08/25 01:50:13;;;;;;;2.35;2.22;;;24.30;55.20;;;;;;5021747;28;20211;-77
2022/08/25 01:52:47;;;;;;;2.28;2.10;;;24.30;55.20;;;;;;5038461;28;20203;-77
2022/08/25 01:55:17;;;;;;;2.13;1.95;;;24.30;55.20;;;;;;5055835;28;20195;-77
2022/08/25 01:57:45;;;;;;;2.15;2.05;;;24.30;55.20;;;;;;5055955;28;20257;-77
2022/08/25 02:00:14;;;;;;;1.95;1.85;;;24.30;55.30;;;;;;5056022;28;20215;-77
2022/08/25 02:02:45;;;;;;;2.20;2.10;;;24.30;55.30;;;;;;5037907;28;20541;-77
2022/08/25 02:05:14;;;;;;;2.88;2.20;;;24.30;55.30;;;;;;5054840;28;20238;-77
2022/08/25 02:07:41;;;;;;;2.05;1.92;;;24.30;55.20;;;;;;5054395;28;20290;-77
2022/08/25 02:10:09;;;;;;;2.30;2.20;;;24.30;55.30;;;;;;5054338;28;20632;-77
2022/08/25 02:12:37;;;;;;;2.30;2.13;;;24.30;55.30;;;;;;5037716;28;20195;-77
2022/08/25 02:15:05;;;;;;;2.40;2.20;;;24.20;55.20;;;;;;5054625;28;20196;-77
2022/08/25 02:17:32;;;;;;;2.13;2.03;;;24.20;55.30;;;;;;5037928;28;20192;-77
2022/08/25 02:20:00;;;;;;;2.25;2.05;;;24.20;55.30;;;;;;5005126;28;20251;-77
2022/08/25 02:22:27;;;;;;;2.25;2.10;;;24.20;55.30;;;;;;5055414;28;20206;-77
2022/08/25 02:24:54;;;;;;;2.50;2.30;;;24.20;55.30;;;;;;5055503;28;20199;-77
2022/08/25 02:27:22;;;;;;;2.20;2.00;;;24.20;55.30;;;;;;5055859;28;20191;-77
2022/08/25 02:29:50;;;;;;;2.40;2.28;;;24.20;55.30;;;;;;5054431;28;20202;-77
2022/08/25 02:32:18;;;;;;;2.10;2.00;;;24.20;55.30;;;;;;5054193;28;20249;-77
2022/08/25 02:34:44;;;;;;;2.30;2.10;;;24.20;55.40;;;;;;5053887;28;20203;-77
2022/08/25 02:37:11;;;;;;;2.40;2.20;;;24.20;55.40;;;;;;5054067;28;20199;-77
2022/08/25 02:39:59;;;;;;;2.10;2.00;;;24.20;55.40;;;;;;5055177;28;20227;-77
2022/08/25 02:42:26;;;;;;;2.30;2.10;;;24.20;55.40;;;;;;5054127;28;20199;-77
2022/08/25 02:44:54;;;;;;;2.28;2.17;;;24.20;55.40;;;;;;5053630;28;20653;-77
2022/08/25 02:47:22;;;;;;;2.33;2.13;;;24.20;55.40;;;;;;5053797;28;20606;-77
2022/08/25 02:49:49;;;;;;;2.50;2.30;;;24.20;55.40;;;;;;5037568;28;20191;-77
2022/08/25 02:52:16;;;;;;;2.30;2.10;;;24.10;55.30;;;;;;5054057;28;20203;-77
2022/08/25 02:54:43;;;;;;;2.33;2.20;;;24.10;55.30;;;;;;5054880;28;20828;-77
2022/08/25 02:57:10;;;;;;;2.55;2.40;;;24.10;55.30;;;;;;5053303;28;20200;-77
2022/08/25 02:59:37;;;;;;;2.50;2.30;;;24.10;55.40;;;;;;5054913;28;20298;-77
2022/08/25 03:02:06;;;;;;;2.20;2.10;;;24.10;55.30;;;;;;5055958;28;20198;-77
2022/08/25 03:04:33;;;;;;;2.60;2.40;;;24.10;55.30;;;;;;5037002;28;20281;-77
2022/08/25 03:07:00;;;;;;;2.67;2.47;;;24.10;55.40;;;;;;5053254;28;20191;-77
2022/08/25 03:09:27;;;;;;;2.28;2.17;;;24.10;55.40;;;;;;5053124;28;20219;-77
2022/08/25 03:11:54;;;;;;;2.47;2.28;;;24.10;55.40;;;;;;5053218;28;20245;-77
2022/08/25 03:14:21;;;;;;;2.60;2.40;;;24.10;55.40;;;;;;5055065;28;20195;-77
2022/08/25 03:16:48;;;;;;;2.53;2.33;;;24.10;55.50;;;;;;5053576;28;20219;-77
2022/08/25 03:19:16;;;;;;;2.65;2.42;;;24.10;55.50;;;;;;5054664;28;20199;-77
2022/08/25 03:21:45;;;;;;;2.45;2.28;;;24.10;55.60;;;;;;5054492;28;20216;-77
2022/08/25 03:24:12;;;;;;;2.53;2.40;;;24.10;55.50;;;;;;5023114;28;20196;-77
2022/08/25 03:26:54;;;;;;;2.70;2.50;;;24.10;55.50;;;;;;5054313;28;20206;-77
2022/08/25 03:29:22;;;;;;;2.90;2.50;;;24.20;55.50;;;;;;5054532;28;20187;-77
2022/08/25 03:31:49;;;;;;;2.72;2.53;;;24.20;55.40;;;;;;5036492;28;20226;-77
2022/08/25 03:34:18;;;;;;;2.53;2.33;;;24.20;55.30;;;;;;5054562;28;20219;-77
2022/08/25 03:36:47;;;;;;;2.67;2.47;;;24.20;55.20;;;;;;5036581;28;20203;-77
2022/08/25 03:39:14;;;;;;;2.75;2.40;;;24.30;55.10;;;;;;5053813;28;20200;-77
2022/08/25 03:41:41;;;;;;;2.47;2.28;;;24.30;55.10;;;;;;5036948;28;20261;-77
2022/08/25 03:44:09;;;;;;;2.75;2.55;;;24.30;55.00;;;;;;5052968;28;20203;-77
2022/08/25 03:46:38;;;;;;;3.08;2.67;;;24.30;55.00;;;;;;5053038;28;20265;-77
2022/08/25 03:49:06;;;;;;;2.80;2.60;;;24.30;55.00;;;;;;5053031;28;20567;-77
2022/08/25 03:51:35;;;;;;;2.63;2.42;;;24.30;54.90;;;;;;5053005;28;20257;-77
2022/08/25 03:54:02;;;;;;;2.72;2.53;;;24.40;54.90;;;;;;5052428;28;20668;-77
2022/08/25 03:56:29;;;;;;;2.60;2.40;;;24.40;54.90;;;;;;5052614;28;20199;-77
2022/08/25 03:58:56;;;;;;;2.63;2.42;;;24.30;54.80;;;;;;5054924;28;20225;-77
2022/08/25 04:01:24;;;;;;;2.65;2.45;;;24.30;54.90;;;;;;5052310;28;20234;-77
2022/08/25 04:03:51;;;;;;;2.97;2.78;;;24.30;54.90;;;;;;5053542;28;20194;-77
2022/08/25 04:06:18;;;;;;;2.75;2.55;;;24.30;54.80;;;;;;5035767;28;20286;-77
2022/08/25 04:08:47;;;;;;;2.72;2.53;;;24.30;54.80;;;;;;5052539;28;20249;-77
2022/08/25 04:11:16;;;;;;;2.80;2.60;;;24.30;54.80;;;;;;5052272;28;20219;-77
2022/08/25 04:13:44;;;;;;;2.53;2.33;;;24.30;54.90;;;;;;5053021;28;20223;-77
2022/08/25 04:16:11;;;;;;;2.80;2.60;;;24.30;54.90;;;;;;5020299;28;20207;-77
2022/08/25 04:18:38;;;;;;;2.53;2.33;;;24.30;54.90;;;;;;5052302;28;20234;-77
2022/08/25 04:21:07;;;;;;;2.50;2.30;;;24.30;55.00;;;;;;5052300;28;20728;-77
2022/08/25 04:23:34;;;;;;;2.63;2.42;;;24.30;55.00;;;;;;5052355;28;20715;-77
2022/08/25 04:26:08;;;;;;;2.90;2.70;;;24.30;55.00;;;;;;5035687;28;20210;-77
2022/08/25 04:28:35;;;;;;;2.80;2.60;;;24.30;55.10;;;;;;5052288;28;20195;-77
2022/08/25 04:31:04;;;;;;;2.63;2.42;;;24.20;55.00;;;;;;5052488;28;20780;-77
2022/08/25 04:33:31;;;;;;;2.65;2.45;;;24.30;55.10;;;;;;5055644;28;20294;-77
2022/08/25 04:35:58;;;;;;;2.85;2.65;;;24.20;55.00;;;;;;5063427;28;20219;-77
2022/08/25 04:38:25;;;;;;;2.75;2.40;;;24.20;55.00;;;;;;5056127;28;20611;-77
2022/08/25 04:40:56;;;;;;;2.85;2.65;;;24.20;55.00;;;;;;5055943;28;20230;-77
2022/08/25 04:43:24;;;;;;;2.58;2.38;;;24.20;55.10;;;;;;5056039;28;20199;-77
2022/08/25 04:45:52;;;;;;;2.72;2.47;;;24.20;55.10;;;;;;5057073;28;20210;-77
2022/08/25 04:48:19;;;;;;;2.70;2.50;;;24.20;55.10;;;;;;5022849;28;20634;-77
2022/08/25 04:50:46;;;;;;;2.60;2.40;;;24.20;55.20;;;;;;5055960;28;20693;-77
2022/08/25 04:53:14;;;;;;;2.97;2.78;;;24.20;55.70;;;;;;5055690;28;20202;-77
2022/08/25 04:55:41;;;;;;;2.70;2.50;;;24.20;55.10;;;;;;5055596;28;20603;-77
2022/08/25 04:58:08;;;;;;;2.88;2.67;;;24.20;55.10;;;;;;5055972;28;20211;-77
2022/08/25 05:00:36;;;;;;;2.70;2.50;;;24.20;55.10;;;;;;5056736;28;20218;-77
2022/08/25 05:03:03;;;;;;;3.10;2.90;;;24.20;55.10;;;;;;5056714;28;20321;-77
2022/08/25 05:05:30;;;;;;;2.80;2.60;;;24.20;55.10;;;;;;5055542;28;20195;-77
2022/08/25 05:07:58;;;;;;;4.22;3.47;;;24.20;54.80;;;;;;5055997;28;20202;-77
2022/08/25 05:10:25;;;;;;;4.55;4.15;;;24.20;54.80;;;;;;5040757;28;20199;-76
2022/08/25 05:12:52;;;;;;;5.00;4.60;;;24.10;54.50;;;;;;5055493;28;20203;-77
2022/08/25 05:18:05;;;;;;;4.60;4.20;;;23.70;55.50;;;;;;5055614;28;20179;-77
2022/08/25 05:20:32;;;;;;;6.35;4.47;;;23.50;56.20;;;;;;5055639;28;20223;-77
2022/08/25 05:22:59;;;;;;;5.53;4.10;;;23.30;56.50;;;;;;5055187;28;20206;-77
2022/08/25 05:25:26;;;;;;;4.70;4.28;;;23.20;56.80;;;;;;5043321;28;20293;-77
2022/08/25 05:27:53;;;;;;;4.57;4.18;;;23.10;56.90;;;;;;5048946;28;20207;-77
2022/08/25 05:30:20;;;;;;;4.72;4.32;;;23.10;57.00;;;;;;5038487;28;20223;-77
2022/08/25 05:32:47;;;;;;;5.13;4.38;;;23.10;57.40;;;;;;5038984;28;20283;-77
2022/08/25 05:35:16;;;;;;;4.60;4.20;;;23.10;57.60;;;;;;5038580;28;20587;-77
2022/08/25 05:37:42;;;;;;;5.55;4.05;;;23.00;57.70;;;;;;5038674;28;20200;-77
2022/08/25 05:40:11;;;;;;;5.28;4.60;;;22.90;57.90;;;;;;5038665;28;20247;-77
2022/08/25 05:42:39;;;;;;;5.25;4.45;;;22.90;58.10;;;;;;5037943;28;20195;-77
2022/08/25 05:45:08;;;;;;;4.40;4.00;;;22.90;58.00;;;;;;5054029;28;20222;-77
2022/08/25 05:47:35;;;;;;;5.07;3.92;;;23.10;57.80;;;;;;5042601;28;20229;-77
2022/08/25 05:50:02;;;;;;;4.00;3.70;;;23.30;57.60;;;;;;5021907;28;20310;-77
2022/08/25 05:52:31;;;;;;;4.35;3.95;;;23.40;57.30;;;;;;5038190;28;20274;-77
2022/08/25 05:54:59;;;;;;;4.40;3.78;;;23.50;57.10;;;;;;5038570;28;20192;-77
2022/08/25 05:57:26;;;;;;;4.15;3.78;;;23.70;56.70;;;;;;5037195;28;20230;-77
2022/08/25 05:59:53;;;;;;;4.25;3.85;;;23.90;56.20;;;;;;5036410;28;20563;-77
2022/08/25 06:05:05;;;;;;;4.18;3.58;;;24.40;54.80;;;;;;5035721;28;20626;-77
2022/08/25 06:07:34;;;;;;;4.47;3.50;;;24.60;54.60;;;;;;5035842;28;20199;-77
2022/08/25 06:10:02;;;;;;;4.13;3.40;;;24.70;54.20;;;;;;5035774;28;20223;-77
2022/08/25 06:12:31;;;;;;;5.03;3.42;;;25.00;53.80;;;;;;5035988;28;20199;-77
2022/08/25 06:14:58;;;;;;;3.53;3.22;;;25.30;53.20;;;;;;5037286;28;20199;-77
2022/08/25 06:17:25;;;;;;;4.03;3.33;;;25.50;52.70;;;;;;5037770;28;20245;-77
2022/08/25 06:19:53;;;;;;;3.80;3.50;;;25.70;52.30;;;;;;5037592;28;20210;-77
2022/08/25 06:22:21;;;;;;;4.10;3.75;;;25.90;51.80;;;;;;5021262;28;20230;-77
2022/08/25 06:24:49;;;;;;;4.53;3.50;;;26.10;51.40;;;;;;5037809;28;20260;-77
2022/08/25 06:27:16;;;;;;;4.13;3.70;;;26.30;50.90;;;;;;5056022;28;20195;-77
2022/08/25 06:29:43;;;;;;;3.83;3.40;;;26.40;50.60;;;;;;5037654;28;20199;-77
2022/08/25 06:32:10;;;;;;;5.80;3.50;;;26.50;50.20;;;;;;5055310;28;20557;-77
2022/08/25 06:34:37;;;;;;;4.00;3.35;;;26.70;49.90;;;;;;5037296;28;20202;-77
2022/08/25 06:37:04;;;;;;;4.70;3.72;;;26.80;49.70;;;;;;5037143;28;20199;-77
2022/08/25 06:39:31;;;;;;;4.22;3.83;;;26.80;49.40;;;;;;5037473;28;20199;-77
2022/08/25 06:42:00;;;;;;;4.13;3.55;;;26.90;49.20;;;;;;5037147;28;20682;-77
2022/08/25 06:44:27;;;;;;;5.32;3.70;;;27.00;49.10;;;;;;5037118;28;20195;-77
2022/08/25 06:46:54;;;;;;;4.45;3.58;;;27.10;48.80;;;;;;5037096;28;20199;-77
2022/08/25 06:49:21;;;;;;;5.47;3.70;;;27.20;48.60;;;;;;5038007;28;20203;-77
2022/08/25 06:51:48;;;;;;;4.32;3.92;;;27.30;48.40;;;;;;5036941;28;20217;-77
2022/08/25 06:54:15;;;;;;;3.92;3.33;;;27.40;48.10;;;;;;5037305;28;20281;-76
2022/08/25 06:56:42;;;;;;;4.38;3.80;;;27.50;47.80;;;;;;5036606;28;20290;-77
2022/08/25 06:59:10;;;;;;;4.20;3.88;;;27.60;47.60;;;;;;5036863;28;20202;-77
2022/08/25 07:01:38;;;;;;;4.10;3.70;;;27.70;47.40;;;;;;5036934;28;20305;-77
2022/08/25 07:04:05;;;;;;;4.07;3.78;;;27.80;47.20;;;;;;5036774;28;20205;-77
2022/08/25 07:06:34;;;;;;;4.35;3.95;;;27.90;47.00;;;;;;5036804;28;20201;-77
2022/08/25 07:09:01;;;;;;;3.83;3.53;;;28.00;46.90;;;;;;5036718;28;20194;-77
2022/08/25 07:11:28;;;;;;;3.70;3.40;;;28.10;46.70;;;;;;5036840;28;20207;-77
2022/08/25 07:13:55;;;;;;;4.63;3.85;;;28.20;46.50;;;;;;5036668;28;20199;-77
2022/08/25 07:16:23;;;;;;;5.15;3.80;;;28.20;46.30;;;;;;5037402;28;20198;-77
2022/08/25 07:18:50;;;;;;;4.45;3.67;;;28.30;46.20;;;;;;5036622;28;20233;-76
2022/08/25 07:21:17;;;;;;;4.35;3.55;;;28.40;46.00;;;;;;5036442;28;20229;-76
2022/08/25 07:23:44;;;;;;;4.53;3.80;;;28.50;45.90;;;;;;5036539;28;20198;-77
2022/08/25 07:26:11;;;;;;;4.00;3.60;;;28.50;45.70;;;;;;5036819;28;20199;-77
2022/08/25 07:28:38;;;;;;;4.55;4.05;;;28.60;45.60;;;;;;5036805;28;20198;-77
2022/08/25 07:31:10;;;;;;;5.35;4.35;;;28.70;45.40;;;;;;5043860;28;20234;-76
2022/08/25 07:35:13;;;;;;;5.43;4.15;;;28.80;45.30;;;;;;5039142;28;20191;-75
2022/08/25 07:36:25;;;;;;;4.38;3.85;;;28.80;45.10;;;;;;5036357;28;20218;-75
2022/08/25 07:38:52;;;;;;;4.50;4.10;;;28.90;45.00;;;;;;5036072;28;20739;-75
2022/08/25 07:41:20;;;;;;;5.18;4.10;;;29.00;44.80;;;;;;5036069;28;20287;-75
2022/08/25 07:43:47;;;;;;;5.45;3.80;;;29.00;44.60;;;;;;5019975;28;20190;-75
2022/08/25 07:46:14;;;;;;;6.05;4.57;;;29.10;44.50;;;;;;5036057;28;20264;-75
2022/08/25 07:48:42;;;;;;;4.95;3.63;;;29.10;44.40;;;;;;5036624;28;20285;-76
2022/08/25 07:51:10;;;;;;;4.80;3.92;;;29.10;44.20;;;;;;5036437;28;20211;-76
2022/08/25 07:53:37;;;;;;;5.40;3.85;;;29.20;44.20;;;;;;5037207;28;20206;-76
2022/08/25 07:56:09;;;;;;;5.63;4.15;;;29.30;44.80;;;;;;5036579;28;20554;-76
2022/08/25 07:58:36;;;;;;;5.30;3.90;;;29.30;44.00;;;;;;5035916;28;20230;-76
2022/08/25 08:01:03;;;;;;;5.63;4.10;;;29.30;43.90;;;;;;5035768;28;20693;-76
2022/08/25 08:03:30;;;;;;;4.97;4.10;;;29.30;43.80;;;;;;5053837;28;20183;-76
2022/08/25 08:05:58;;;;;;;5.43;4.13;;;29.40;43.80;;;;;;5036083;28;20195;-76
2022/08/25 08:08:25;;;;;;;4.63;4.00;;;29.40;43.70;;;;;;5040222;28;20746;-76
2022/08/25 08:10:52;;;;;;;5.38;4.10;;;29.40;43.70;;;;;;5040090;28;20712;-76
2022/08/25 08:13:19;;;;;;;4.45;4.05;;;29.40;43.70;;;;;;5040549;28;20205;-76
2022/08/25 08:15:46;;;;;;;6.20;4.05;;;29.50;43.80;;;;;;5058069;28;20190;-76
2022/08/25 08:18:13;;;;;;;4.75;3.70;;;29.50;43.80;;;;;;5040287;28;20653;-76
2022/08/25 08:20:40;;;;;;;4.07;3.67;;;29.50;43.90;;;;;;5039892;28;20221;-76
2022/08/25 08:23:08;;;;;;;4.40;3.70;;;29.60;43.90;;;;;;5039475;28;20226;-76
2022/08/25 08:25:35;;;;;;;4.65;3.85;;;29.60;43.90;;;;;;5039974;28;20198;-76
2022/08/25 08:28:03;;;;;;;5.03;4.10;;;29.60;43.90;;;;;;5039687;28;20684;-76
2022/08/25 08:30:30;;;;;;;4.63;3.78;;;29.60;43.90;;;;;;5040283;28;20219;-76
2022/08/25 08:32:57;;;;;;;4.18;3.47;;;29.60;43.90;;;;;;5023631;28;20665;-76
2022/08/25 08:35:24;;;;;;;4.85;3.80;;;29.70;44.00;;;;;;5039689;28;20198;-76
2022/08/25 08:37:51;;;;;;;4.13;3.53;;;29.70;43.80;;;;;;5039512;28;20665;-76
2022/08/25 08:40:20;;;;;;;4.10;3.50;;;29.70;43.70;;;;;;5023144;28;20226;-75
2022/08/25 08:42:53;;;;;;;3.80;3.42;;;29.80;43.80;;;;;;5040123;28;20704;-75
2022/08/25 08:45:28;;;;;;;3.83;3.35;;;29.80;43.60;;;;;;5023449;28;20218;-75
2022/08/25 08:48:17;;;;;;;5.53;3.65;;;29.90;43.60;;;;;;5039327;28;20194;-75
2022/08/25 08:50:48;;;;;;;3.88;3.47;;;29.90;43.50;;;;;;5010144;28;20218;-75
2022/08/25 08:53:19;;;;;;;4.43;3.25;;;29.90;43.30;;;;;;5057120;28;20179;-75
2022/08/25 08:55:49;;;;;;;4.10;3.63;;;30.00;43.30;;;;;;5041452;28;20199;-75
2022/08/25 08:58:17;;;;;;;4.40;3.47;;;30.00;43.20;;;;;;5056967;28;20186;-76
2022/08/25 09:00:45;;;;;;;4.75;3.70;;;30.00;43.10;;;;;;5039069;28;20309;-76
2022/08/25 09:03:27;;;;;;;4.57;3.65;;;30.00;43.10;;;;;;5038913;28;20221;-76
2022/08/25 09:05:56;;;;;;;4.32;3.92;;;30.10;43.20;;;;;;5040016;28;20584;-76
2022/08/25 09:08:23;;;;;;;3.90;3.40;;;30.10;43.00;;;;;;5039086;28;20203;-75
2022/08/25 09:10:57;;;;;;;3.95;3.60;;;30.10;43.00;;;;;;5038795;28;20214;-75
2022/08/25 09:13:32;;;;;;;4.07;3.67;;;30.10;43.00;;;;;;5038819;28;20194;-76
2022/08/25 09:18:49;;;;;;;4.13;3.58;;;30.10;43.00;;;;;;5037858;28;20277;-76
2022/08/25 09:21:18;;;;;;;3.92;3.58;;;30.00;43.10;;;;;;5038853;28;20220;-76
2022/08/25 09:23:54;;;;;;;4.75;3.60;;;30.10;43.10;;;;;;5039348;28;20232;-76
2022/08/25 09:26:27;;;;;;;3.60;3.30;;;30.10;43.10;;;;;;5038750;28;20648;-76
2022/08/25 09:28:58;;;;;;;3.95;3.42;;;30.10;43.10;;;;;;5023528;28;20191;-76
2022/08/25 09:31:26;;;;;;;4.03;3.60;;;30.00;43.10;;;;;;5038933;28;20214;-76
2022/08/25 09:33:55;;;;;;;3.72;3.25;;;30.00;43.00;;;;;;5038440;28;20248;-76
2022/08/25 09:36:22;;;;;;;3.50;3.20;;;30.00;43.10;;;;;;5038354;28;20206;-76
2022/08/25 09:38:49;;;;;;;3.58;3.28;;;30.00;43.20;;;;;;5056447;28;20708;-76
2022/08/25 09:41:17;;;;;;;4.38;3.60;;;29.90;43.10;;;;;;5038201;28;20222;-76
2022/08/25 09:43:53;;;;;;;4.68;3.22;;;29.90;43.20;;;;;;5038103;28;20285;-76
2022/08/25 09:46:24;;;;;;;3.55;3.08;;;29.90;43.40;;;;;;5055971;28;20186;-76
2022/08/25 09:48:52;;;;;;;3.40;3.15;;;29.80;43.30;;;;;;5039048;28;20191;-76
2022/08/25 09:51:21;;;;;;;3.70;3.40;;;29.90;43.50;;;;;;5038103;28;20214;-76
2022/08/25 09:53:51;;;;;;;3.28;3.00;;;29.80;43.50;;;;;;5038039;28;20274;-76
2022/08/25 09:56:20;;;;;;;4.60;3.58;;;29.80;43.60;;;;;;5055838;28;20179;-76
2022/08/25 09:58:49;;;;;;;3.72;3.42;;;29.80;43.60;;;;;;5038345;28;20199;-76
2022/08/25 10:01:16;;;;;;;3.63;3.20;;;29.80;43.60;;;;;;5037811;28;20229;-76
2022/08/25 10:03:57;;;;;;;3.63;3.30;;;29.80;43.60;;;;;;5037822;28;20206;-76
2022/08/25 10:06:25;;;;;;;3.72;3.30;;;29.70;43.60;;;;;;5055991;28;20190;-76
2022/08/25 10:08:56;;;;;;;4.15;3.55;;;29.70;43.60;;;;;;5038311;28;20636;-76
2022/08/25 10:11:36;;;;;;;4.13;3.72;;;29.70;43.60;;;;;;5038144;28;20272;-76
2022/08/25 10:14:06;;;;;;;3.45;3.15;;;29.60;43.80;;;;;;5037700;28;20638;-76
2022/08/25 10:16:34;;;;;;;3.28;3.03;;;29.60;43.90;;;;;;5037731;28;20241;-76
2022/08/25 10:19:04;;;;;;;3.40;3.10;;;29.50;43.90;;;;;;5037756;28;20190;-76
2022/08/25 10:21:31;;;;;;;3.45;3.00;;;29.50;44.10;;;;;;5037614;28;20704;-76
2022/08/25 10:24:00;;;;;;;3.15;2.85;;;29.40;44.10;;;;;;5037418;28;20203;-76
2022/08/25 10:26:32;;;;;;;3.60;3.30;;;29.40;44.20;;;;;;5037578;28;20198;-76
2022/08/25 10:29:08;;;;;;;3.58;3.28;;;29.40;44.30;;;;;;5037675;28;20248;-76
2022/08/25 10:31:36;;;;;;;3.33;3.03;;;29.30;44.30;;;;;;5037412;28;20246;-76
2022/08/25 10:34:11;;;;;;;3.30;3.00;;;29.30;44.40;;;;;;5037907;28;20289;-76
2022/08/25 10:36:43;;;;;;;3.47;3.17;;;29.30;44.60;;;;;;5037248;28;20218;-76
2022/08/25 10:39:16;;;;;;;3.40;3.10;;;29.20;44.50;;;;;;5037267;28;20198;-76
2022/08/25 10:41:49;;;;;;;3.30;3.00;;;29.20;44.70;;;;;;5037103;28;20592;-76
2022/08/25 10:47:33;;;;;;;3.20;2.90;;;29.10;44.90;;;;;;5037666;28;20231;-76
2022/08/25 10:50:03;;;;;;;3.35;3.15;;;29.00;45.00;;;;;;5037469;28;20236;-76
2022/08/25 10:52:32;;;;;;;3.20;2.90;;;29.00;45.10;;;;;;5054847;28;20191;-76
2022/08/25 10:55:01;;;;;;;3.28;2.97;;;28.90;45.10;;;;;;5036934;28;20207;-76
2022/08/25 10:57:32;;;;;;;3.53;3.22;;;28.90;45.30;;;;;;5020765;28;20213;-76
2022/08/25 11:00:06;;;;;;;3.53;3.22;;;28.80;45.40;;;;;;5037822;28;20278;-76
2022/08/25 11:03:13;;;;;;;3.40;3.10;;;28.80;45.60;;;;;;5037175;28;20756;-76
2022/08/25 11:05:41;;;;;;;3.60;3.30;;;28.70;45.60;;;;;;5034710;28;20195;-76
2022/08/25 11:08:10;;;;;;;3.92;3.20;;;28.70;45.80;;;;;;5037041;28;20236;-76
2022/08/25 11:10:45;;;;;;;3.20;2.90;;;28.60;45.90;;;;;;5037360;28;20207;-76
2022/08/25 11:13:16;;;;;;;3.33;3.03;;;28.50;46.10;;;;;;5037667;28;20193;-76
2022/08/25 11:15:49;;;;;;;3.42;3.13;;;28.50;46.20;;;;;;5037965;28;20191;-76
2022/08/25 11:18:16;;;;;;;3.28;2.97;;;28.50;46.40;;;;;;5036829;28;20187;-76
2022/08/25 11:20:46;;;;;;;2.97;2.78;;;28.40;46.40;;;;;;5054551;28;20214;-76
2022/08/25 11:23:16;;;;;;;3.40;3.00;;;28.40;46.50;;;;;;5036503;28;20306;-76
2022/08/25 11:25:45;;;;;;;3.75;3.17;;;28.30;46.40;;;;;;5036417;28;20189;-76
2022/08/25 11:28:13;;;;;;;3.05;2.85;;;28.40;46.50;;;;;;5036637;28;20281;-76
2022/08/25 11:30:40;;;;;;;3.65;3.03;;;28.40;46.40;;;;;;5036715;28;20226;-76
2022/08/25 11:33:09;;;;;;;3.15;2.95;;;28.50;46.40;;;;;;5036319;28;20241;-76
2022/08/25 11:35:38;;;;;;;3.10;2.80;;;28.50;46.40;;;;;;5037326;28;20233;-76
2022/08/25 11:38:17;;;;;;;3.20;3.00;;;28.50;46.40;;;;;;5054671;28;20205;-76
2022/08/25 11:40:50;;;;;;;3.50;2.97;;;28.50;46.40;;;;;;5054523;28;20202;-76
2022/08/25 11:43:38;;;;;;;3.10;2.80;;;28.50;46.40;;;;;;5036870;28;20217;-76
2022/08/25 11:46:13;;;;;;;3.17;2.97;;;28.50;46.40;;;;;;5037429;28;20277;-76
2022/08/25 11:48:45;;;;;;;3.35;3.05;;;28.50;46.40;;;;;;5036355;28;20649;-76
2022/08/25 11:51:27;;;;;;;3.05;2.83;;;28.50;46.40;;;;;;5036222;28;20223;-76
2022/08/25 11:54:10;;;;;;;3.38;3.00;;;28.50;46.50;;;;;;5036442;28;20650;-76
2022/08/25 11:56:37;;;;;;;3.00;2.70;;;28.50;46.60;;;;;;5036983;28;20194;-76
2022/08/25 11:59:05;;;;;;;2.97;2.78;;;28.50;46.60;;;;;;5036548;28;20205;-76
2022/08/25 12:02:09;;;;;;;2.80;2.60;;;28.40;46.50;;;;;;5036405;28;20225;-76
2022/08/25 12:04:40;;;;;;;3.38;2.70;;;28.50;46.60;;;;;;5036199;28;20198;-76
2022/08/25 12:07:24;;;;;;;3.63;3.33;;;28.40;46.60;;;;;;5036015;28;20195;-76
2022/08/25 12:10:19;;;;;;;2.90;2.70;;;28.50;46.70;;;;;;5019569;28;20246;-76
2022/08/25 12:13:05;;;;;;;3.03;2.70;;;28.40;46.70;;;;;;5035824;28;20194;-76
2022/08/25 12:15:57;;;;;;;3.45;3.00;;;28.40;46.70;;;;;;5036385;28;20651;-76
2022/08/25 12:18:44;;;;;;;2.95;2.75;;;28.40;46.70;;;;;;5036359;28;20244;-76
2022/08/25 12:21:16;;;;;;;2.95;2.75;;;28.40;46.80;;;;;;5036106;28;20245;-76
2022/08/25 12:23:44;;;;;;;3.20;2.90;;;28.40;46.80;;;;;;5035838;28;20210;-77
2022/08/25 12:26:17;;;;;;;2.65;2.45;;;28.40;46.80;;;;;;5035905;28;20243;-77
2022/08/25 12:28:51;;;;;;;2.78;2.58;;;28.40;46.90;;;;;;5036069;28;20328;-77
2022/08/25 12:31:24;;;;;;;2.67;2.47;;;28.40;46.90;;;;;;5035927;28;20689;-77
2022/08/25 12:33:59;;;;;;;2.78;2.58;;;28.40;46.90;;;;;;5036323;28;20212;-77
2022/08/25 12:36:29;;;;;;;2.72;2.53;;;28.40;47.00;;;;;;5020112;28;20195;-77
2022/08/25 12:39:07;;;;;;;3.13;2.85;;;28.40;47.00;;;;;;5036117;28;20669;-77
2022/08/25 12:41:34;;;;;;;2.78;2.58;;;28.40;47.00;;;;;;5036438;28;20222;-77
2022/08/25 12:44:10;;;;;;;2.78;2.58;;;28.40;47.00;;;;;;5036003;28;20261;-77
2022/08/25 12:46:38;;;;;;;2.70;2.50;;;28.40;47.00;;;;;;5036736;28;20209;-77
2022/08/25 12:49:11;;;;;;;2.92;2.72;;;28.40;47.10;;;;;;5036327;28;20199;-76
2022/08/25 12:51:52;;;;;;;3.20;2.90;;;28.30;47.10;;;;;;5036708;28;20758;-76
2022/08/25 12:54:22;;;;;;;2.70;2.50;;;28.40;47.10;;;;;;5039872;28;20254;-78
2022/08/25 12:56:52;;;;;;;2.78;2.55;;;28.40;47.10;;;;;;5040730;28;20187;-76
2022/08/25 12:59:20;;;;;;;3.22;2.90;;;28.30;47.20;;;;;;5064352;28;20193;-76
2022/08/25 13:02:09;;;;;;;3.13;2.85;;;28.30;47.20;;;;;;5043932;28;20230;-78
2022/08/25 13:05:03;;;;;;;2.78;2.53;;;28.30;47.20;;;;;;5024337;28;20329;-76
2022/08/25 13:07:54;;;;;;;2.80;2.60;;;28.30;47.20;;;;;;5039148;28;20195;-76
2022/08/25 13:10:25;;;;;;;2.80;2.60;;;28.30;47.20;;;;;;5038984;28;20230;-76
2022/08/25 13:12:56;;;;;;;2.60;2.40;;;28.30;47.20;;;;;;5039060;28;20214;-77